sensor_id;sensor_type;location;lat;lon;timestamp;P1;durP1;ratioP1;P2;durP2;ratioP2
52470;SDS011;38382;53.160;7.026;2023-04-16T00:01:39;43.33;;;22.67;;
52470;SDS011;38382;53.160;7.026;2023-04-16T00:04:05;51.95;;;23.10;;
52470;SDS011;38382;53.160;7.026;2023-04-16T00:06:31;37.28;;;18.98;;
52470;SDS011;38382;53.160;7.026;2023-04-16T00:08:56;44.60;;;20.65;;
52470;SDS011;38382;53.160;7.026;2023-04-16T00:11:22;43.90;;;18.83;;
52470;SDS011;38382;53.160;7.026;2023-04-16T00:13:48;43.92;;;19.48;;
52470;SDS011;38382;53.160;7.026;2023-04-16T00:16:14;39.90;;;18.75;;
52470;SDS011;38382;53.160;7.026;2023-04-16T00:18:40;51.00;;;21.52;;
52470;SDS011;38382;53.160;7.026;2023-04-16T00:21:06;39.70;;;19.48;;
52470;SDS011;38382;53.160;7.026;2023-04-16T00:23:32;49.75;;;20.88;;
52470;SDS011;38382;53.160;7.026;2023-04-16T00:25:58;36.28;;;18.80;;
52470;SDS011;38382;53.160;7.026;2023-04-16T00:28:26;44.58;;;20.95;;
52470;SDS011;38382;53.160;7.026;2023-04-16T00:30:52;41.45;;;20.35;;
52470;SDS011;38382;53.160;7.026;2023-04-16T00:33:18;40.70;;;19.05;;
52470;SDS011;38382;53.160;7.026;2023-04-16T00:35:44;38.00;;;19.38;;
52470;SDS011;38382;53.160;7.026;2023-04-16T00:38:11;39.05;;;18.30;;
52470;SDS011;38382;53.160;7.026;2023-04-16T00:40:37;37.38;;;19.55;;
52470;SDS011;38382;53.160;7.026;2023-04-16T00:43:03;47.22;;;18.98;;
52470;SDS011;38382;53.160;7.026;2023-04-16T00:45:29;47.67;;;18.30;;
52470;SDS011;38382;53.160;7.026;2023-04-16T00:47:55;43.60;;;18.60;;
52470;SDS011;38382;53.160;7.026;2023-04-16T00:50:22;44.72;;;18.30;;
52470;SDS011;38382;53.160;7.026;2023-04-16T00:52:48;43.47;;;19.42;;
52470;SDS011;38382;53.160;7.026;2023-04-16T00:55:14;39.50;;;18.85;;
52470;SDS011;38382;53.160;7.026;2023-04-16T00:57:42;50.22;;;19.42;;
52470;SDS011;38382;53.160;7.026;2023-04-16T01:00:09;43.28;;;18.08;;
52470;SDS011;38382;53.160;7.026;2023-04-16T01:02:35;45.65;;;18.98;;
52470;SDS011;38382;53.160;7.026;2023-04-16T01:05:01;53.28;;;19.52;;
52470;SDS011;38382;53.160;7.026;2023-04-16T01:07:28;45.47;;;20.20;;
52470;SDS011;38382;53.160;7.026;2023-04-16T01:09:54;52.40;;;20.38;;
52470;SDS011;38382;53.160;7.026;2023-04-16T01:12:20;42.85;;;19.42;;
52470;SDS011;38382;53.160;7.026;2023-04-16T01:14:46;58.45;;;21.00;;
52470;SDS011;38382;53.160;7.026;2023-04-16T01:17:12;53.50;;;21.02;;
52470;SDS011;38382;53.160;7.026;2023-04-16T01:19:38;41.40;;;19.33;;
52470;SDS011;38382;53.160;7.026;2023-04-16T01:22:04;58.30;;;22.80;;
52470;SDS011;38382;53.160;7.026;2023-04-16T01:24:30;61.85;;;23.67;;
52470;SDS011;38382;53.160;7.026;2023-04-16T01:26:56;85.75;;;26.80;;
52470;SDS011;38382;53.160;7.026;2023-04-16T01:29:23;87.35;;;27.30;;
52470;SDS011;38382;53.160;7.026;2023-04-16T01:31:49;130.23;;;29.65;;
52470;SDS011;38382;53.160;7.026;2023-04-16T01:34:15;142.27;;;28.83;;
52470;SDS011;38382;53.160;7.026;2023-04-16T01:36:40;111.50;;;28.95;;
52470;SDS011;38382;53.160;7.026;2023-04-16T01:39:06;96.22;;;28.73;;
52470;SDS011;38382;53.160;7.026;2023-04-16T01:41:35;105.82;;;27.77;;
52470;SDS011;38382;53.160;7.026;2023-04-16T01:44:01;131.00;;;29.98;;
52470;SDS011;38382;53.160;7.026;2023-04-16T01:46:27;118.53;;;29.95;;
52470;SDS011;38382;53.160;7.026;2023-04-16T01:48:59;123.80;;;30.00;;
52470;SDS011;38382;53.160;7.026;2023-04-16T01:51:26;119.03;;;31.35;;
52470;SDS011;38382;53.160;7.026;2023-04-16T01:53:52;113.47;;;31.75;;
52470;SDS011;38382;53.160;7.026;2023-04-16T01:56:18;99.55;;;30.27;;
52470;SDS011;38382;53.160;7.026;2023-04-16T01:58:44;86.40;;;29.20;;
52470;SDS011;38382;53.160;7.026;2023-04-16T02:01:11;87.78;;;29.70;;
52470;SDS011;38382;53.160;7.026;2023-04-16T02:03:37;91.55;;;29.70;;
52470;SDS011;38382;53.160;7.026;2023-04-16T02:06:03;86.13;;;29.52;;
52470;SDS011;38382;53.160;7.026;2023-04-16T02:08:29;112.30;;;31.23;;
52470;SDS011;38382;53.160;7.026;2023-04-16T02:10:55;85.07;;;29.85;;
52470;SDS011;38382;53.160;7.026;2023-04-16T02:13:21;87.38;;;29.52;;
52470;SDS011;38382;53.160;7.026;2023-04-16T02:15:49;89.45;;;29.35;;
52470;SDS011;38382;53.160;7.026;2023-04-16T02:18:16;78.70;;;28.27;;
52470;SDS011;38382;53.160;7.026;2023-04-16T02:20:42;89.90;;;30.10;;
52470;SDS011;38382;53.160;7.026;2023-04-16T02:23:09;93.80;;;29.77;;
52470;SDS011;38382;53.160;7.026;2023-04-16T02:25:39;89.85;;;28.08;;
52470;SDS011;38382;53.160;7.026;2023-04-16T02:28:06;81.78;;;28.65;;
52470;SDS011;38382;53.160;7.026;2023-04-16T02:30:33;73.68;;;29.85;;
52470;SDS011;38382;53.160;7.026;2023-04-16T02:33:03;110.97;;;30.23;;
52470;SDS011;38382;53.160;7.026;2023-04-16T02:35:34;78.00;;;29.33;;
52470;SDS011;38382;53.160;7.026;2023-04-16T02:38:01;89.30;;;29.27;;
52470;SDS011;38382;53.160;7.026;2023-04-16T02:40:28;103.03;;;29.48;;
52470;SDS011;38382;53.160;7.026;2023-04-16T02:42:54;96.18;;;28.52;;
52470;SDS011;38382;53.160;7.026;2023-04-16T02:45:21;83.80;;;28.45;;
52470;SDS011;38382;53.160;7.026;2023-04-16T02:47:47;54.78;;;25.23;;
52470;SDS011;38382;53.160;7.026;2023-04-16T02:50:14;73.18;;;27.13;;
52470;SDS011;38382;53.160;7.026;2023-04-16T02:52:40;68.15;;;26.13;;
52470;SDS011;38382;53.160;7.026;2023-04-16T02:55:06;75.97;;;26.27;;
52470;SDS011;38382;53.160;7.026;2023-04-16T02:57:32;58.20;;;25.67;;
52470;SDS011;38382;53.160;7.026;2023-04-16T02:59:58;55.78;;;25.27;;
52470;SDS011;38382;53.160;7.026;2023-04-16T03:02:24;56.13;;;25.02;;
52470;SDS011;38382;53.160;7.026;2023-04-16T03:04:50;56.17;;;24.20;;
52470;SDS011;38382;53.160;7.026;2023-04-16T03:07:16;48.05;;;22.92;;
52470;SDS011;38382;53.160;7.026;2023-04-16T03:09:43;53.65;;;24.15;;
52470;SDS011;38382;53.160;7.026;2023-04-16T03:12:09;59.40;;;24.75;;
52470;SDS011;38382;53.160;7.026;2023-04-16T03:14:34;56.90;;;25.63;;
52470;SDS011;38382;53.160;7.026;2023-04-16T03:17:00;53.67;;;24.02;;
52470;SDS011;38382;53.160;7.026;2023-04-16T03:19:26;63.03;;;24.85;;
52470;SDS011;38382;53.160;7.026;2023-04-16T03:21:52;61.65;;;23.85;;
52470;SDS011;38382;53.160;7.026;2023-04-16T03:24:17;44.03;;;21.73;;
52470;SDS011;38382;53.160;7.026;2023-04-16T03:26:43;42.75;;;22.23;;
52470;SDS011;38382;53.160;7.026;2023-04-16T03:29:09;51.72;;;23.17;;
52470;SDS011;38382;53.160;7.026;2023-04-16T03:31:35;47.30;;;23.27;;
52470;SDS011;38382;53.160;7.026;2023-04-16T03:34:00;42.33;;;22.13;;
52470;SDS011;38382;53.160;7.026;2023-04-16T03:36:26;45.67;;;22.95;;
52470;SDS011;38382;53.160;7.026;2023-04-16T03:38:52;49.15;;;22.73;;
52470;SDS011;38382;53.160;7.026;2023-04-16T03:41:18;48.08;;;22.80;;
52470;SDS011;38382;53.160;7.026;2023-04-16T03:43:43;43.63;;;22.83;;
52470;SDS011;38382;53.160;7.026;2023-04-16T03:46:09;45.92;;;22.52;;
52470;SDS011;38382;53.160;7.026;2023-04-16T03:48:36;53.72;;;24.05;;
52470;SDS011;38382;53.160;7.026;2023-04-16T03:51:01;46.10;;;22.48;;
52470;SDS011;38382;53.160;7.026;2023-04-16T03:53:27;60.92;;;23.00;;
52470;SDS011;38382;53.160;7.026;2023-04-16T03:55:53;53.60;;;24.02;;
52470;SDS011;38382;53.160;7.026;2023-04-16T03:58:19;47.67;;;23.40;;
52470;SDS011;38382;53.160;7.026;2023-04-16T04:00:45;48.60;;;23.88;;
52470;SDS011;38382;53.160;7.026;2023-04-16T04:03:11;51.70;;;24.63;;
52470;SDS011;38382;53.160;7.026;2023-04-16T04:05:41;56.10;;;24.42;;
52470;SDS011;38382;53.160;7.026;2023-04-16T04:08:07;50.38;;;24.13;;
52470;SDS011;38382;53.160;7.026;2023-04-16T04:10:33;52.80;;;22.77;;
52470;SDS011;38382;53.160;7.026;2023-04-16T04:13:01;49.97;;;22.67;;
52470;SDS011;38382;53.160;7.026;2023-04-16T04:15:28;39.83;;;22.40;;
52470;SDS011;38382;53.160;7.026;2023-04-16T04:17:54;47.15;;;22.48;;
52470;SDS011;38382;53.160;7.026;2023-04-16T04:20:20;49.97;;;23.65;;
52470;SDS011;38382;53.160;7.026;2023-04-16T04:22:46;48.83;;;23.08;;
52470;SDS011;38382;53.160;7.026;2023-04-16T04:25:12;45.55;;;21.02;;
52470;SDS011;38382;53.160;7.026;2023-04-16T04:27:38;45.25;;;23.25;;
52470;SDS011;38382;53.160;7.026;2023-04-16T04:30:04;48.80;;;23.80;;
52470;SDS011;38382;53.160;7.026;2023-04-16T04:32:30;39.67;;;21.38;;
52470;SDS011;38382;53.160;7.026;2023-04-16T04:34:56;47.50;;;23.92;;
52470;SDS011;38382;53.160;7.026;2023-04-16T04:37:24;43.47;;;23.35;;
52470;SDS011;38382;53.160;7.026;2023-04-16T04:39:49;43.97;;;22.52;;
52470;SDS011;38382;53.160;7.026;2023-04-16T04:42:18;42.47;;;23.38;;
52470;SDS011;38382;53.160;7.026;2023-04-16T04:44:45;45.45;;;22.65;;
52470;SDS011;38382;53.160;7.026;2023-04-16T04:47:11;45.38;;;23.73;;
52470;SDS011;38382;53.160;7.026;2023-04-16T04:49:37;41.33;;;21.70;;
52470;SDS011;38382;53.160;7.026;2023-04-16T04:52:03;45.42;;;22.45;;
52470;SDS011;38382;53.160;7.026;2023-04-16T04:54:30;39.13;;;21.13;;
52470;SDS011;38382;53.160;7.026;2023-04-16T04:56:56;41.92;;;23.23;;
52470;SDS011;38382;53.160;7.026;2023-04-16T04:59:23;41.47;;;22.33;;
52470;SDS011;38382;53.160;7.026;2023-04-16T05:01:49;50.05;;;23.27;;
52470;SDS011;38382;53.160;7.026;2023-04-16T05:04:15;39.50;;;21.23;;
52470;SDS011;38382;53.160;7.026;2023-04-16T05:06:41;41.13;;;23.33;;
52470;SDS011;38382;53.160;7.026;2023-04-16T05:09:07;39.85;;;22.02;;
52470;SDS011;38382;53.160;7.026;2023-04-16T05:11:40;38.10;;;21.42;;
52470;SDS011;38382;53.160;7.026;2023-04-16T05:14:06;35.00;;;20.33;;
52470;SDS011;38382;53.160;7.026;2023-04-16T05:16:34;40.85;;;22.75;;
52470;SDS011;38382;53.160;7.026;2023-04-16T05:19:01;36.30;;;21.58;;
52470;SDS011;38382;53.160;7.026;2023-04-16T05:21:26;37.55;;;20.98;;
52470;SDS011;38382;53.160;7.026;2023-04-16T05:23:52;42.45;;;22.38;;
52470;SDS011;38382;53.160;7.026;2023-04-16T05:26:18;45.17;;;23.40;;
52470;SDS011;38382;53.160;7.026;2023-04-16T05:28:44;41.78;;;23.75;;
52470;SDS011;38382;53.160;7.026;2023-04-16T05:31:09;43.72;;;23.23;;
52470;SDS011;38382;53.160;7.026;2023-04-16T05:33:35;40.33;;;23.77;;
52470;SDS011;38382;53.160;7.026;2023-04-16T05:36:01;42.13;;;23.67;;
52470;SDS011;38382;53.160;7.026;2023-04-16T05:38:27;44.65;;;23.98;;
52470;SDS011;38382;53.160;7.026;2023-04-16T05:40:52;42.33;;;23.98;;
52470;SDS011;38382;53.160;7.026;2023-04-16T05:43:18;41.80;;;24.27;;
52470;SDS011;38382;53.160;7.026;2023-04-16T05:45:44;42.45;;;23.90;;
52470;SDS011;38382;53.160;7.026;2023-04-16T05:48:09;39.15;;;23.90;;
52470;SDS011;38382;53.160;7.026;2023-04-16T05:50:36;42.40;;;24.33;;
52470;SDS011;38382;53.160;7.026;2023-04-16T05:53:04;42.83;;;23.08;;
52470;SDS011;38382;53.160;7.026;2023-04-16T05:55:31;40.83;;;22.70;;
52470;SDS011;38382;53.160;7.026;2023-04-16T05:57:57;38.55;;;20.90;;
52470;SDS011;38382;53.160;7.026;2023-04-16T06:00:23;35.20;;;21.38;;
52470;SDS011;38382;53.160;7.026;2023-04-16T06:02:49;34.65;;;21.02;;
52470;SDS011;38382;53.160;7.026;2023-04-16T06:05:15;40.08;;;22.13;;
52470;SDS011;38382;53.160;7.026;2023-04-16T06:07:41;35.55;;;21.45;;
52470;SDS011;38382;53.160;7.026;2023-04-16T06:10:07;42.20;;;21.70;;
52470;SDS011;38382;53.160;7.026;2023-04-16T06:12:33;37.72;;;21.90;;
52470;SDS011;38382;53.160;7.026;2023-04-16T06:14:59;41.05;;;21.95;;
52470;SDS011;38382;53.160;7.026;2023-04-16T06:17:25;39.35;;;22.00;;
52470;SDS011;38382;53.160;7.026;2023-04-16T06:19:51;39.40;;;22.27;;
52470;SDS011;38382;53.160;7.026;2023-04-16T06:22:17;39.03;;;22.45;;
52470;SDS011;38382;53.160;7.026;2023-04-16T06:24:43;36.35;;;21.77;;
52470;SDS011;38382;53.160;7.026;2023-04-16T06:27:08;42.25;;;21.42;;
52470;SDS011;38382;53.160;7.026;2023-04-16T06:29:34;40.50;;;22.40;;
52470;SDS011;38382;53.160;7.026;2023-04-16T06:32:00;36.85;;;20.90;;
52470;SDS011;38382;53.160;7.026;2023-04-16T06:34:27;39.88;;;20.85;;
52470;SDS011;38382;53.160;7.026;2023-04-16T06:36:53;40.65;;;21.35;;
52470;SDS011;38382;53.160;7.026;2023-04-16T06:39:19;37.05;;;20.58;;
52470;SDS011;38382;53.160;7.026;2023-04-16T06:41:48;43.05;;;21.90;;
52470;SDS011;38382;53.160;7.026;2023-04-16T06:44:14;40.65;;;21.10;;
52470;SDS011;38382;53.160;7.026;2023-04-16T06:46:40;44.30;;;20.80;;
52470;SDS011;38382;53.160;7.026;2023-04-16T06:49:06;42.20;;;20.85;;
52470;SDS011;38382;53.160;7.026;2023-04-16T06:51:32;42.78;;;21.15;;
52470;SDS011;38382;53.160;7.026;2023-04-16T06:53:58;42.00;;;20.65;;
52470;SDS011;38382;53.160;7.026;2023-04-16T06:56:23;37.33;;;20.48;;
52470;SDS011;38382;53.160;7.026;2023-04-16T06:58:49;47.15;;;21.60;;
52470;SDS011;38382;53.160;7.026;2023-04-16T07:01:16;43.08;;;21.48;;
52470;SDS011;38382;53.160;7.026;2023-04-16T07:03:42;42.80;;;21.45;;
52470;SDS011;38382;53.160;7.026;2023-04-16T07:06:08;38.80;;;20.67;;
52470;SDS011;38382;53.160;7.026;2023-04-16T07:08:34;40.13;;;21.92;;
52470;SDS011;38382;53.160;7.026;2023-04-16T07:11:00;41.60;;;21.40;;
52470;SDS011;38382;53.160;7.026;2023-04-16T07:13:26;40.70;;;21.23;;
52470;SDS011;38382;53.160;7.026;2023-04-16T07:15:52;44.03;;;21.52;;
52470;SDS011;38382;53.160;7.026;2023-04-16T07:18:18;44.10;;;22.48;;
52470;SDS011;38382;53.160;7.026;2023-04-16T07:20:43;43.15;;;22.23;;
52470;SDS011;38382;53.160;7.026;2023-04-16T07:23:09;42.67;;;21.55;;
52470;SDS011;38382;53.160;7.026;2023-04-16T07:25:35;43.97;;;21.45;;
52470;SDS011;38382;53.160;7.026;2023-04-16T07:28:01;50.75;;;22.45;;
52470;SDS011;38382;53.160;7.026;2023-04-16T07:30:28;40.00;;;20.17;;
52470;SDS011;38382;53.160;7.026;2023-04-16T07:33:04;44.42;;;20.42;;
52470;SDS011;38382;53.160;7.026;2023-04-16T07:35:29;42.08;;;20.95;;
52470;SDS011;38382;53.160;7.026;2023-04-16T07:37:56;39.40;;;20.17;;
52470;SDS011;38382;53.160;7.026;2023-04-16T07:40:22;42.75;;;21.30;;
52470;SDS011;38382;53.160;7.026;2023-04-16T07:42:48;37.78;;;20.50;;
52470;SDS011;38382;53.160;7.026;2023-04-16T07:45:14;39.65;;;21.20;;
52470;SDS011;38382;53.160;7.026;2023-04-16T07:47:40;41.10;;;20.95;;
52470;SDS011;38382;53.160;7.026;2023-04-16T07:50:06;37.08;;;21.00;;
52470;SDS011;38382;53.160;7.026;2023-04-16T07:52:32;38.83;;;20.15;;
52470;SDS011;38382;53.160;7.026;2023-04-16T07:54:58;40.45;;;20.13;;
52470;SDS011;38382;53.160;7.026;2023-04-16T07:57:24;42.22;;;20.95;;
52470;SDS011;38382;53.160;7.026;2023-04-16T07:59:50;37.88;;;19.65;;
52470;SDS011;38382;53.160;7.026;2023-04-16T08:02:15;33.03;;;19.25;;
52470;SDS011;38382;53.160;7.026;2023-04-16T08:04:41;39.35;;;18.88;;
52470;SDS011;38382;53.160;7.026;2023-04-16T08:07:07;34.30;;;18.88;;
52470;SDS011;38382;53.160;7.026;2023-04-16T08:09:33;34.97;;;19.20;;
52470;SDS011;38382;53.160;7.026;2023-04-16T08:12:02;31.35;;;18.05;;
52470;SDS011;38382;53.160;7.026;2023-04-16T08:14:28;34.53;;;18.45;;
52470;SDS011;38382;53.160;7.026;2023-04-16T08:16:54;32.80;;;19.60;;
52470;SDS011;38382;53.160;7.026;2023-04-16T08:19:19;36.50;;;18.02;;
52470;SDS011;38382;53.160;7.026;2023-04-16T08:21:45;34.97;;;18.50;;
52470;SDS011;38382;53.160;7.026;2023-04-16T08:24:11;36.38;;;18.20;;
52470;SDS011;38382;53.160;7.026;2023-04-16T08:26:37;34.92;;;17.40;;
52470;SDS011;38382;53.160;7.026;2023-04-16T08:29:03;34.38;;;17.50;;
52470;SDS011;38382;53.160;7.026;2023-04-16T08:31:29;32.65;;;17.50;;
52470;SDS011;38382;53.160;7.026;2023-04-16T08:33:55;33.38;;;17.23;;
52470;SDS011;38382;53.160;7.026;2023-04-16T08:36:20;29.98;;;17.52;;
52470;SDS011;38382;53.160;7.026;2023-04-16T08:38:46;30.30;;;16.55;;
52470;SDS011;38382;53.160;7.026;2023-04-16T08:41:12;28.48;;;16.58;;
52470;SDS011;38382;53.160;7.026;2023-04-16T08:43:41;32.25;;;17.63;;
52470;SDS011;38382;53.160;7.026;2023-04-16T08:46:12;29.25;;;15.90;;
52470;SDS011;38382;53.160;7.026;2023-04-16T08:48:41;29.92;;;15.77;;
52470;SDS011;38382;53.160;7.026;2023-04-16T08:51:09;28.63;;;16.58;;
52470;SDS011;38382;53.160;7.026;2023-04-16T08:53:43;28.08;;;15.90;;
52470;SDS011;38382;53.160;7.026;2023-04-16T08:56:16;29.45;;;15.98;;
52470;SDS011;38382;53.160;7.026;2023-04-16T08:58:46;29.58;;;16.80;;
52470;SDS011;38382;53.160;7.026;2023-04-16T09:01:14;28.98;;;15.75;;
52470;SDS011;38382;53.160;7.026;2023-04-16T09:03:42;26.85;;;16.70;;
52470;SDS011;38382;53.160;7.026;2023-04-16T09:06:11;27.17;;;16.70;;
52470;SDS011;38382;53.160;7.026;2023-04-16T09:08:37;33.00;;;16.58;;
52470;SDS011;38382;53.160;7.026;2023-04-16T09:11:04;26.98;;;16.02;;
52470;SDS011;38382;53.160;7.026;2023-04-16T09:13:31;29.48;;;16.80;;
52470;SDS011;38382;53.160;7.026;2023-04-16T09:15:57;27.52;;;15.98;;
52470;SDS011;38382;53.160;7.026;2023-04-16T09:18:23;26.20;;;16.15;;
52470;SDS011;38382;53.160;7.026;2023-04-16T09:20:50;24.98;;;16.05;;
52470;SDS011;38382;53.160;7.026;2023-04-16T09:23:16;24.20;;;15.20;;
52470;SDS011;38382;53.160;7.026;2023-04-16T09:25:42;23.65;;;15.60;;
52470;SDS011;38382;53.160;7.026;2023-04-16T09:28:11;23.17;;;15.65;;
52470;SDS011;38382;53.160;7.026;2023-04-16T09:30:37;22.95;;;15.88;;
52470;SDS011;38382;53.160;7.026;2023-04-16T09:33:19;25.50;;;16.00;;
52470;SDS011;38382;53.160;7.026;2023-04-16T09:35:48;29.08;;;15.25;;
52470;SDS011;38382;53.160;7.026;2023-04-16T09:38:15;27.90;;;15.45;;
52470;SDS011;38382;53.160;7.026;2023-04-16T09:40:41;24.02;;;14.90;;
52470;SDS011;38382;53.160;7.026;2023-04-16T09:43:16;21.38;;;15.30;;
52470;SDS011;38382;53.160;7.026;2023-04-16T09:45:49;24.73;;;15.50;;
52470;SDS011;38382;53.160;7.026;2023-04-16T09:48:29;21.83;;;14.35;;
52470;SDS011;38382;53.160;7.026;2023-04-16T09:50:56;23.10;;;14.75;;
52470;SDS011;38382;53.160;7.026;2023-04-16T09:53:24;24.58;;;15.50;;
52470;SDS011;38382;53.160;7.026;2023-04-16T09:56:01;20.63;;;14.68;;
52470;SDS011;38382;53.160;7.026;2023-04-16T09:58:29;24.52;;;14.27;;
52470;SDS011;38382;53.160;7.026;2023-04-16T10:00:59;22.00;;;14.13;;
52470;SDS011;38382;53.160;7.026;2023-04-16T10:03:29;23.70;;;14.48;;
52470;SDS011;38382;53.160;7.026;2023-04-16T10:06:00;25.25;;;14.98;;
52470;SDS011;38382;53.160;7.026;2023-04-16T10:08:43;23.73;;;15.05;;
52470;SDS011;38382;53.160;7.026;2023-04-16T10:13:37;19.15;;;14.00;;
52470;SDS011;38382;53.160;7.026;2023-04-16T10:16:03;23.33;;;14.65;;
52470;SDS011;38382;53.160;7.026;2023-04-16T10:18:30;21.10;;;14.18;;
52470;SDS011;38382;53.160;7.026;2023-04-16T10:20:56;20.80;;;14.15;;
52470;SDS011;38382;53.160;7.026;2023-04-16T10:23:22;21.30;;;14.88;;
52470;SDS011;38382;53.160;7.026;2023-04-16T10:25:48;21.45;;;14.77;;
52470;SDS011;38382;53.160;7.026;2023-04-16T10:28:15;21.48;;;14.30;;
52470;SDS011;38382;53.160;7.026;2023-04-16T10:30:42;24.83;;;15.02;;
52470;SDS011;38382;53.160;7.026;2023-04-16T10:33:17;24.67;;;15.55;;
52470;SDS011;38382;53.160;7.026;2023-04-16T10:35:45;23.90;;;15.00;;
52470;SDS011;38382;53.160;7.026;2023-04-16T10:38:20;23.65;;;14.35;;
52470;SDS011;38382;53.160;7.026;2023-04-16T10:40:57;25.83;;;14.82;;
52470;SDS011;38382;53.160;7.026;2023-04-16T10:43:24;20.23;;;14.10;;
52470;SDS011;38382;53.160;7.026;2023-04-16T10:45:50;19.05;;;13.95;;
52470;SDS011;38382;53.160;7.026;2023-04-16T10:48:18;19.15;;;13.35;;
52470;SDS011;38382;53.160;7.026;2023-04-16T10:50:54;23.17;;;14.63;;
52470;SDS011;38382;53.160;7.026;2023-04-16T10:53:25;20.70;;;13.63;;
52470;SDS011;38382;53.160;7.026;2023-04-16T10:56:08;22.60;;;14.18;;
52470;SDS011;38382;53.160;7.026;2023-04-16T10:58:38;26.15;;;13.70;;
52470;SDS011;38382;53.160;7.026;2023-04-16T11:01:10;18.35;;;13.55;;
52470;SDS011;38382;53.160;7.026;2023-04-16T11:03:41;19.60;;;13.30;;
52470;SDS011;38382;53.160;7.026;2023-04-16T11:06:15;21.35;;;14.32;;
52470;SDS011;38382;53.160;7.026;2023-04-16T11:08:45;21.52;;;14.57;;
52470;SDS011;38382;53.160;7.026;2023-04-16T11:11:12;17.65;;;13.35;;
52470;SDS011;38382;53.160;7.026;2023-04-16T11:13:38;19.58;;;12.93;;
52470;SDS011;38382;53.160;7.026;2023-04-16T11:16:07;20.48;;;14.02;;
52470;SDS011;38382;53.160;7.026;2023-04-16T11:18:34;21.08;;;14.20;;
52470;SDS011;38382;53.160;7.026;2023-04-16T11:21:01;20.45;;;14.25;;
52470;SDS011;38382;53.160;7.026;2023-04-16T11:23:26;18.77;;;13.95;;
52470;SDS011;38382;53.160;7.026;2023-04-16T11:25:52;19.00;;;13.23;;
52470;SDS011;38382;53.160;7.026;2023-04-16T11:28:31;18.10;;;12.93;;
52470;SDS011;38382;53.160;7.026;2023-04-16T11:30:58;17.70;;;12.30;;
52470;SDS011;38382;53.160;7.026;2023-04-16T11:33:33;19.45;;;13.13;;
52470;SDS011;38382;53.160;7.026;2023-04-16T11:35:59;21.83;;;13.60;;
52470;SDS011;38382;53.160;7.026;2023-04-16T11:38:31;20.05;;;13.75;;
52470;SDS011;38382;53.160;7.026;2023-04-16T11:40:59;20.88;;;13.25;;
52470;SDS011;38382;53.160;7.026;2023-04-16T11:43:24;21.55;;;13.13;;
52470;SDS011;38382;53.160;7.026;2023-04-16T11:45:57;21.40;;;13.20;;
52470;SDS011;38382;53.160;7.026;2023-04-16T11:48:46;20.13;;;13.43;;
52470;SDS011;38382;53.160;7.026;2023-04-16T11:51:16;22.25;;;12.95;;
52470;SDS011;38382;53.160;7.026;2023-04-16T11:53:49;21.73;;;14.07;;
52470;SDS011;38382;53.160;7.026;2023-04-16T11:56:50;22.33;;;13.32;;
52470;SDS011;38382;53.160;7.026;2023-04-16T11:59:11;23.15;;;13.70;;
52470;SDS011;38382;53.160;7.026;2023-04-16T12:01:38;21.33;;;13.57;;
52470;SDS011;38382;53.160;7.026;2023-04-16T12:04:06;20.60;;;14.00;;
52470;SDS011;38382;53.160;7.026;2023-04-16T12:06:32;21.95;;;14.38;;
52470;SDS011;38382;53.160;7.026;2023-04-16T12:09:21;23.05;;;15.38;;
52470;SDS011;38382;53.160;7.026;2023-04-16T12:11:51;20.95;;;14.68;;
52470;SDS011;38382;53.160;7.026;2023-04-16T12:14:17;20.52;;;13.82;;
52470;SDS011;38382;53.160;7.026;2023-04-16T12:16:43;24.60;;;15.07;;
52470;SDS011;38382;53.160;7.026;2023-04-16T12:19:10;21.95;;;15.13;;
52470;SDS011;38382;53.160;7.026;2023-04-16T12:21:40;22.40;;;15.07;;
52470;SDS011;38382;53.160;7.026;2023-04-16T12:24:11;21.17;;;14.57;;
52470;SDS011;38382;53.160;7.026;2023-04-16T12:31:41;23.67;;;16.38;;
52470;SDS011;38382;53.160;7.026;2023-04-16T12:34:06;21.42;;;15.85;;
52470;SDS011;38382;53.160;7.026;2023-04-16T12:36:32;23.60;;;15.77;;
52470;SDS011;38382;53.160;7.026;2023-04-16T12:38:58;24.67;;;17.23;;
52470;SDS011;38382;53.160;7.026;2023-04-16T12:41:24;23.65;;;16.13;;
52470;SDS011;38382;53.160;7.026;2023-04-16T12:43:49;20.70;;;15.27;;
52470;SDS011;38382;53.160;7.026;2023-04-16T12:46:15;23.75;;;14.93;;
52470;SDS011;38382;53.160;7.026;2023-04-16T12:48:41;21.15;;;15.20;;
52470;SDS011;38382;53.160;7.026;2023-04-16T12:51:07;21.17;;;15.50;;
52470;SDS011;38382;53.160;7.026;2023-04-16T12:53:33;19.95;;;15.45;;
52470;SDS011;38382;53.160;7.026;2023-04-16T12:55:59;22.70;;;15.55;;
52470;SDS011;38382;53.160;7.026;2023-04-16T12:58:24;24.25;;;15.48;;
52470;SDS011;38382;53.160;7.026;2023-04-16T13:00:51;21.90;;;15.93;;
52470;SDS011;38382;53.160;7.026;2023-04-16T13:03:16;20.40;;;15.25;;
52470;SDS011;38382;53.160;7.026;2023-04-16T13:05:42;24.50;;;16.60;;
52470;SDS011;38382;53.160;7.026;2023-04-16T13:08:08;22.90;;;17.00;;
52470;SDS011;38382;53.160;7.026;2023-04-16T13:10:34;22.90;;;16.67;;
52470;SDS011;38382;53.160;7.026;2023-04-16T13:12:59;23.40;;;16.70;;
52470;SDS011;38382;53.160;7.026;2023-04-16T13:15:25;25.25;;;16.90;;
52470;SDS011;38382;53.160;7.026;2023-04-16T13:17:51;24.77;;;16.35;;
52470;SDS011;38382;53.160;7.026;2023-04-16T13:20:16;23.35;;;17.15;;
52470;SDS011;38382;53.160;7.026;2023-04-16T13:22:42;23.80;;;17.40;;
52470;SDS011;38382;53.160;7.026;2023-04-16T13:25:08;25.70;;;16.92;;
52470;SDS011;38382;53.160;7.026;2023-04-16T13:27:34;26.42;;;17.75;;
52470;SDS011;38382;53.160;7.026;2023-04-16T13:30:00;26.90;;;16.60;;
52470;SDS011;38382;53.160;7.026;2023-04-16T13:32:26;23.80;;;16.30;;
52470;SDS011;38382;53.160;7.026;2023-04-16T13:34:51;24.50;;;16.27;;
52470;SDS011;38382;53.160;7.026;2023-04-16T13:37:17;26.27;;;17.23;;
52470;SDS011;38382;53.160;7.026;2023-04-16T13:39:43;23.27;;;16.20;;
52470;SDS011;38382;53.160;7.026;2023-04-16T13:42:09;22.48;;;15.80;;
52470;SDS011;38382;53.160;7.026;2023-04-16T13:44:35;24.48;;;16.42;;
52470;SDS011;38382;53.160;7.026;2023-04-16T13:47:00;24.27;;;16.33;;
52470;SDS011;38382;53.160;7.026;2023-04-16T13:49:26;25.48;;;15.75;;
52470;SDS011;38382;53.160;7.026;2023-04-16T13:51:52;25.85;;;15.88;;
52470;SDS011;38382;53.160;7.026;2023-04-16T13:54:18;27.20;;;15.75;;
52470;SDS011;38382;53.160;7.026;2023-04-16T13:56:43;24.77;;;16.38;;
52470;SDS011;38382;53.160;7.026;2023-04-16T13:59:09;24.10;;;16.30;;
52470;SDS011;38382;53.160;7.026;2023-04-16T14:01:35;23.35;;;15.82;;
52470;SDS011;38382;53.160;7.026;2023-04-16T14:04:01;26.05;;;16.17;;
52470;SDS011;38382;53.160;7.026;2023-04-16T14:06:30;28.35;;;16.10;;
52470;SDS011;38382;53.160;7.026;2023-04-16T14:08:57;25.42;;;15.18;;
52470;SDS011;38382;53.160;7.026;2023-04-16T14:11:22;22.52;;;15.25;;
52470;SDS011;38382;53.160;7.026;2023-04-16T14:13:48;23.52;;;15.23;;
52470;SDS011;38382;53.160;7.026;2023-04-16T14:16:14;23.90;;;15.38;;
52470;SDS011;38382;53.160;7.026;2023-04-16T14:18:40;23.20;;;15.60;;
52470;SDS011;38382;53.160;7.026;2023-04-16T14:21:06;25.90;;;15.45;;
52470;SDS011;38382;53.160;7.026;2023-04-16T14:23:32;24.17;;;14.95;;
52470;SDS011;38382;53.160;7.026;2023-04-16T14:25:58;22.42;;;14.85;;
52470;SDS011;38382;53.160;7.026;2023-04-16T14:28:24;23.50;;;15.05;;